Time;durP1;ratioP1;P1;durP2;ratioP2;P2;SDS_P1;SDS_P2;PMS_P1;PMS_P2;Temp;Humidity;BMP_temperature;BMP_pressure;BME280_temperature;BME280_humidity;BME280_pressure;Samples;Min_cycle;Max_cycle;Signal;HPM_P1;HPM_P2
2022/09/03 02:03:04;;;;;;;5.63;2.70;;;;;;;-145.18;100.00;47187.84;5165358;23;20069;-69
2022/09/03 02:05:30;;;;;;;8.97;2.60;;;;;;;-145.18;100.00;47203.47;4971398;28;20026;-69
2022/09/03 02:08:01;;;;;;;10.20;2.60;;;;;;;-145.18;100.00;47187.84;4972065;28;20494;-68
2022/09/03 02:10:39;;;;;;;10.77;2.47;;;;;;;-145.18;100.00;47195.66;4973727;28;20062;-68
2022/09/03 02:13:09;;;;;;;5.27;2.40;;;;;;;-145.18;100.00;47197.59;4971487;28;20019;-68
2022/09/03 02:15:36;;;;;;;6.67;2.27;;;;;;;-145.18;100.00;47217.13;4959074;28;20537;-67
2022/09/03 02:18:09;;;;;;;5.53;2.70;;;;;;;-145.18;100.00;47191.75;4972246;28;20657;-67
2022/09/03 02:20:36;;;;;;;10.47;2.83;;;;;;;-145.18;100.00;47207.38;4972627;28;20040;-67
2022/09/03 02:23:02;;;;;;;6.47;2.50;;;;;;;-145.18;100.00;47213.22;4955165;28;20049;-67
2022/09/03 02:25:40;;;;;;;5.60;2.20;;;;;;;-145.18;100.00;47242.53;4954637;28;20114;-67
2022/09/03 02:28:07;;;;;;;4.80;2.27;;;;;;;-145.18;100.00;47197.59;4954179;28;20038;-67
2022/09/03 02:30:33;;;;;;;5.77;2.13;;;;;;;-145.18;100.00;47211.28;4954847;28;20059;-67
2022/09/03 02:32:59;;;;;;;4.33;2.40;;;;;;;-145.18;100.00;47199.56;4953861;28;20035;-67
2022/09/03 02:35:24;;;;;;;7.93;2.50;;;;;;;-145.18;100.00;47209.31;4963023;28;20479;-67
2022/09/03 02:37:50;;;;;;;5.67;2.50;;;;;;;-145.18;100.00;47209.31;4973033;28;20035;-67
2022/09/03 02:40:16;;;;;;;7.60;2.87;;;;;;;-145.18;100.00;47207.38;4972379;28;20126;-67
2022/09/03 02:42:41;;;;;;;9.87;2.83;;;;;;;-145.18;100.00;47217.13;4973168;28;20044;-67
2022/09/03 02:45:17;;;;;;;6.17;2.40;;;;;;;-145.18;100.00;47228.84;4973315;28;20495;-67
2022/09/03 02:47:46;;;;;;;5.37;2.20;;;;;;;-145.18;100.00;47236.66;4973360;28;20106;-67
2022/09/03 02:50:12;;;;;;;10.67;3.20;;;;;;;-145.18;100.00;47223.00;4972147;28;20030;-68
2022/09/03 02:52:37;;;;;;;9.00;2.93;;;;;;;-145.18;100.00;47250.34;4970716;28;20038;-69
2022/09/03 02:55:02;;;;;;;3.60;2.20;;;;;;;-145.18;100.00;47246.44;4970415;28;20030;-67
2022/09/03 02:57:28;;;;;;;5.37;2.50;;;;;;;-145.18;100.00;47242.53;4972939;28;20542;-67
2022/09/03 02:59:53;;;;;;;6.17;2.60;;;;;;;-145.18;100.00;47236.66;4972933;28;20057;-67
2022/09/03 03:02:18;;;;;;;6.43;2.60;;;;;;;-145.18;100.00;47246.44;4972770;28;20059;-67
2022/09/03 03:04:44;;;;;;;6.80;2.70;;;;;;;-145.18;100.00;47246.44;4972983;28;20400;-67
2022/09/03 03:07:09;;;;;;;6.67;2.37;;;;;;;-145.18;100.00;47242.53;4966565;28;20480;-67
2022/09/03 03:09:35;;;;;;;8.13;2.90;;;;;;;-145.18;100.00;47234.72;4972284;28;20050;-67
2022/09/03 03:12:00;;;;;;;3.47;2.50;;;;;;;-145.18;100.00;47236.66;4969989;28;20126;-67
2022/09/03 03:14:25;;;;;;;10.57;2.70;;;;;;;-145.18;100.00;47252.31;4972924;28;20042;-67
2022/09/03 03:16:51;;;;;;;5.07;2.47;;;;;;;-145.18;100.00;47254.25;4972017;28;20490;-67
2022/09/03 03:19:17;;;;;;;5.40;2.50;;;;;;;-145.18;100.00;47236.66;4972534;28;20504;-67
2022/09/03 03:21:42;;;;;;;8.10;2.47;;;;;;;-145.18;100.00;47248.41;4972592;28;20027;-67
2022/09/03 03:24:08;;;;;;;8.17;2.47;;;;;;;-145.18;100.00;47250.34;4971033;28;20519;-67
2022/09/03 03:26:34;;;;;;;5.90;2.27;;;;;;;-145.18;100.00;47238.63;4972613;28;20159;-67
2022/09/03 03:29:03;;;;;;;6.10;2.50;;;;;;;-145.18;100.00;47236.66;4972250;28;20042;-67
2022/09/03 03:31:29;;;;;;;7.70;2.67;;;;;;;-145.18;100.00;47240.56;4972831;28;20031;-67
2022/09/03 03:33:57;;;;;;;5.53;2.30;;;;;;;-145.18;100.00;47258.16;4971789;28;20027;-67
2022/09/03 03:36:25;;;;;;;3.90;2.27;;;;;;;-145.18;100.00;47244.50;4972338;28;20417;-67
2022/09/03 03:38:56;;;;;;;4.87;2.27;;;;;;;-145.18;100.00;47262.06;4972085;28;20600;-67
2022/09/03 03:41:33;;;;;;;5.30;2.77;;;;;;;-145.18;100.00;47271.84;4972438;28;20031;-67
2022/09/03 03:44:01;;;;;;;6.73;3.13;;;;;;;-145.18;100.00;47262.06;4971889;28;20394;-67
2022/09/03 03:46:33;;;;;;;8.80;2.70;;;;;;;-145.18;100.00;47277.69;4972320;28;20062;-67
2022/09/03 03:48:59;;;;;;;5.40;2.80;;;;;;;-145.18;100.00;47265.97;4971896;28;20081;-68
2022/09/03 03:51:24;;;;;;;5.93;2.40;;;;;;;-145.18;100.00;47258.16;4972304;28;20494;-67
2022/09/03 03:53:56;;;;;;;5.03;2.53;;;;;;;-145.18;100.00;47267.94;4971990;28;20037;-67
2022/09/03 03:56:22;;;;;;;7.07;3.00;;;;;;;-145.18;100.00;47295.28;4972121;28;20041;-67
2022/09/03 03:58:48;;;;;;;11.20;2.53;;;;;;;-145.18;100.00;47281.59;4972040;28;20035;-67
2022/09/03 04:01:16;;;;;;;4.07;2.37;;;;;;;-145.18;100.00;47275.75;4972271;28;20060;-67
2022/09/03 04:03:41;;;;;;;4.60;2.50;;;;;;;-145.18;100.00;47293.31;4971686;28;20065;-67
2022/09/03 04:06:08;;;;;;;8.47;2.77;;;;;;;-145.18;100.00;47295.28;4972371;28;20054;-67
2022/09/03 04:08:35;;;;;;;5.90;2.87;;;;;;;-145.18;100.00;47297.22;4971917;28;20542;-67
2022/09/03 04:11:02;;;;;;;5.67;2.40;;;;;;;-145.18;100.00;47299.19;4971872;28;20043;-67
2022/09/03 04:13:32;;;;;;;4.63;2.20;;;;;;;-145.18;100.00;47303.09;4971587;28;20117;-67
2022/09/03 04:16:06;;;;;;;5.77;2.90;;;;;;;-145.18;100.00;47291.38;4972094;28;20070;-68
2022/09/03 04:18:32;;;;;;;5.83;2.70;;;;;;;-145.18;100.00;47308.97;4971896;28;20035;-67
2022/09/03 04:21:03;;;;;;;7.53;2.80;;;;;;;-145.18;100.00;47295.28;4971814;28;20476;-67
2022/09/03 04:23:32;;;;;;;6.97;2.73;;;;;;;-145.18;100.00;47303.09;4971679;28;20026;-67
2022/09/03 04:25:57;;;;;;;9.53;2.23;;;;;;;-145.18;100.00;47285.50;4971664;28;20499;-67
2022/09/03 04:28:23;;;;;;;5.63;2.30;;;;;;;-145.18;100.00;47273.78;4974741;28;20117;-67
2022/09/03 04:30:48;;;;;;;6.20;2.70;;;;;;;-145.18;100.00;47295.28;4975959;28;20034;-67
2022/09/03 04:33:14;;;;;;;5.97;2.60;;;;;;;-145.18;100.00;47301.16;4975352;28;20054;-67
2022/09/03 04:35:40;;;;;;;5.07;2.70;;;;;;;-145.18;100.00;47267.94;4975797;28;20041;-67
2022/09/03 04:38:06;;;;;;;8.43;2.60;;;;;;;-145.18;100.00;47267.94;4974683;28;20035;-67
2022/09/03 04:40:32;;;;;;;5.23;2.80;;;;;;;-145.18;100.00;47277.69;4974109;28;20054;-67
2022/09/03 04:42:58;;;;;;;7.23;2.60;;;;;;;-145.18;100.00;47250.34;4964589;28;20035;-67
2022/09/03 04:45:24;;;;;;;8.00;2.40;;;;;;;-145.18;100.00;47178.06;4975387;28;20475;-67
2022/09/03 04:48:03;;;;;;;7.30;3.00;;;;;;;-145.18;100.00;47219.09;4973689;28;20073;-67
2022/09/03 04:50:31;;;;;;;4.00;2.60;;;;;;;-145.18;100.00;47176.09;4975046;28;20039;-67
2022/09/03 04:53:01;;;;;;;7.10;2.07;;;;;;;-145.18;100.00;47137.03;4974245;28;20026;-67
2022/09/03 04:55:31;;;;;;;5.83;2.37;;;;;;;-145.18;100.00;47019.81;4955701;28;20051;-67
2022/09/03 04:57:58;;;;;;;4.23;2.60;;;;;;;-145.18;100.00;46941.69;4965449;28;20034;-67
2022/09/03 05:00:23;;;;;;;3.87;2.13;;;;;;;-145.18;100.00;46879.19;4963213;28;20042;-67
2022/09/03 05:02:50;;;;;;;3.70;2.33;;;;;;;-145.18;100.00;46853.78;4971537;28;20059;-67
2022/09/03 05:05:16;;;;;;;5.43;2.17;;;;;;;-145.18;100.00;46900.66;4974787;28;20038;-67
2022/09/03 05:07:42;;;;;;;5.80;2.43;;;;;;;-145.18;100.00;46900.66;4977443;28;20030;-67
2022/09/03 05:10:12;;;;;;;8.40;2.37;;;;;;;-145.18;100.00;46869.41;4994292;28;20594;-67
2022/09/03 05:12:37;;;;;;;7.23;2.60;;;;;;;-145.18;100.00;46902.63;4994396;28;20120;-67
2022/09/03 05:15:04;;;;;;;9.30;2.70;;;;;;;-145.18;100.00;46900.66;4990385;28;20078;-67
2022/09/03 05:17:29;;;;;;;8.07;2.20;;;;;;;-145.18;100.00;46890.91;4955245;28;20039;-70
2022/09/03 05:19:55;;;;;;;3.47;1.90;;;;;;;-145.18;100.00;46869.41;4955710;28;20039;-68
2022/09/03 05:22:20;;;;;;;6.50;2.30;;;;;;;-145.18;100.00;46830.34;4961876;28;20026;-69
2022/09/03 05:24:47;;;;;;;9.33;2.07;;;;;;;-145.18;100.00;46789.31;4983128;28;20041;-69
2022/09/03 05:27:15;;;;;;;6.73;2.30;;;;;;;-145.18;100.00;46818.63;4973665;28;20406;-69
2022/09/03 05:29:41;;;;;;;8.23;2.07;;;;;;;-145.18;100.00;46801.03;4970735;28;20035;-69
2022/09/03 05:32:06;;;;;;;4.57;1.87;;;;;;;-145.18;100.00;46806.91;4974022;28;20123;-69
2022/09/03 05:34:32;;;;;;;5.73;2.10;;;;;;;-145.18;100.00;46787.38;4973123;28;20034;-69
2022/09/03 05:36:57;;;;;;;5.20;2.80;;;;;;;-145.18;100.00;46775.66;4973985;28;20364;-69
2022/09/03 05:39:22;;;;;;;8.33;3.43;;;;;;;-145.18;100.00;46785.41;4973322;28;20042;-69
2022/09/03 05:41:51;;;;;;;10.50;2.57;;;;;;;-145.18;100.00;46826.44;4974317;28;20431;-69
2022/09/03 05:44:16;;;;;;;6.00;2.40;;;;;;;-145.18;100.00;46836.19;4973766;28;20060;-69
2022/09/03 05:46:42;;;;;;;9.77;2.80;;;;;;;-145.18;100.00;46832.28;4974706;28;20486;-70
2022/09/03 05:49:07;;;;;;;6.00;2.73;;;;;;;-145.18;100.00;46894.81;4974036;28;20042;-70
2022/09/03 05:51:35;;;;;;;7.30;2.30;;;;;;;-145.18;100.00;46857.69;4974535;28;20125;-71
2022/09/03 05:54:01;;;;;;;5.70;2.30;;;;;;;-145.18;100.00;46953.41;4974345;28;20113;-71
2022/09/03 05:56:29;;;;;;;7.30;2.27;;;;;;;-145.18;100.00;47078.44;4974605;28;20027;-71
2022/09/03 05:58:57;;;;;;;4.87;2.40;;;;;;;-145.18;100.00;47055.00;4973758;28;20043;-69
2022/09/03 06:01:27;;;;;;;5.53;2.07;;;;;;;-145.18;100.00;47121.41;4973242;28;20099;-69
2022/09/03 06:04:03;;;;;;;7.60;2.27;;;;;;;-145.18;100.00;47144.84;4973974;28;20045;-69
2022/09/03 06:06:31;;;;;;;7.25;2.60;;;;;;;-145.18;100.00;47170.25;4974511;28;20399;-69
2022/09/03 06:09:02;;;;;;;4.23;2.30;;;;;;;-145.18;100.00;47215.19;4973699;28;20058;-69
2022/09/03 06:11:29;;;;;;;3.87;1.83;;;;;;;-145.18;100.00;47232.75;4970017;28;20039;-69
2022/09/03 06:14:00;;;;;;;6.23;2.40;;;;;;;-145.18;100.00;47242.53;4973713;28;20098;-69
2022/09/03 06:16:26;;;;;;;4.83;2.10;;;;;;;-145.18;100.00;47281.59;4970647;28;20034;-69
2022/09/03 06:18:52;;;;;;;7.33;2.20;;;;;;;-145.18;100.00;47265.97;4964421;28;20045;-69
2022/09/03 06:21:18;;;;;;;6.73;2.30;;;;;;;-145.18;100.00;47262.06;4954716;28;20035;-69
2022/09/03 06:23:51;;;;;;;5.10;2.20;;;;;;;-145.18;100.00;47256.22;4962663;28;20395;-69
2022/09/03 06:26:18;;;;;;;4.07;2.37;;;;;;;-145.18;100.00;47271.84;4973653;28;20041;-69
2022/09/03 06:28:44;;;;;;;5.40;2.47;;;;;;;-145.18;100.00;47273.78;4973169;28;20543;-69
2022/09/03 06:31:12;;;;;;;8.13;2.40;;;;;;;-145.18;100.00;47264.03;4953939;28;20121;-69
2022/09/03 06:33:38;;;;;;;6.33;2.43;;;;;;;-145.18;100.00;47254.25;4954130;28;20102;-69
2022/09/03 06:36:07;;;;;;;5.60;2.07;;;;;;;-145.18;100.00;47234.72;4954268;28;20041;-69
2022/09/03 06:38:37;;;;;;;4.50;2.40;;;;;;;-145.18;100.00;47221.03;4954214;28;20027;-69
2022/09/03 06:41:13;;;;;;;8.67;2.30;;;;;;;-145.18;100.00;47207.38;4954024;28;20027;-69
2022/09/03 06:43:40;;;;;;;8.13;2.87;;;;;;;-145.18;100.00;47203.47;4936944;29;20082;-69
2022/09/03 06:46:12;;;;;;;8.40;2.80;;;;;;;-145.18;100.00;47205.41;4953512;28;20039;-69
2022/09/03 06:48:42;;;;;;;4.73;2.23;;;;;;;-145.18;100.00;47201.50;4952842;28;20094;-69
2022/09/03 06:51:13;;;;;;;12.80;2.90;;;;;;;-145.18;100.00;47183.94;4966685;28;20575;-70
2022/09/03 06:53:41;;;;;;;3.93;2.43;;;;;;;-145.18;100.00;47183.94;4953286;28;20023;-69
2022/09/03 06:56:09;;;;;;;8.70;2.60;;;;;;;-145.18;100.00;47185.88;4953222;28;20027;-69
2022/09/03 06:58:41;;;;;;;4.93;2.60;;;;;;;-145.18;100.00;47164.38;4953166;28;20384;-70
2022/09/03 07:01:10;;;;;;;6.33;2.70;;;;;;;-145.18;100.00;47162.44;4957831;28;20023;-70
2022/09/03 07:03:37;;;;;;;6.47;2.63;;;;;;;-145.18;100.00;47150.72;4972964;28;20042;-70
2022/09/03 07:06:07;;;;;;;7.83;2.40;;;;;;;-145.18;100.00;47133.13;4966713;28;20106;-69
2022/09/03 07:08:33;;;;;;;4.83;2.30;;;;;;;-145.18;100.00;47168.28;4952443;28;20031;-69
2022/09/03 07:11:04;;;;;;;6.37;2.50;;;;;;;-145.18;100.00;47150.72;4953275;28;20396;-70
2022/09/03 07:13:31;;;;;;;7.97;2.40;;;;;;;-145.18;100.00;47121.41;4964580;28;20031;-70
2022/09/03 07:16:01;;;;;;;6.23;2.50;;;;;;;-145.18;100.00;47139.00;4972314;28;20395;-70
2022/09/03 07:18:27;;;;;;;9.20;2.60;;;;;;;-145.18;100.00;47131.19;4972434;28;20050;-70
2022/09/03 07:20:57;;;;;;;5.13;2.60;;;;;;;-145.18;100.00;47125.31;4972816;28;20031;-70
2022/09/03 07:23:22;;;;;;;6.87;1.97;;;;;;;-145.18;100.00;47142.91;4972324;28;20483;-70
2022/09/03 07:25:59;;;;;;;4.63;1.73;;;;;;;-145.18;100.00;47139.00;4972081;28;20031;-70
2022/09/03 07:28:26;;;;;;;7.57;1.67;;;;;;;-145.18;100.00;47125.31;4971701;28;20034;-69
2022/09/03 07:30:52;;;;;;;5.77;2.40;;;;;;;-145.18;100.00;47150.72;4972287;28;20038;-69
2022/09/03 07:33:18;;;;;;;6.47;2.47;;;;;;;-145.18;100.00;47137.03;4971183;28;20038;-69
2022/09/03 07:35:44;;;;;;;8.80;2.37;;;;;;;-145.18;100.00;47146.81;4971942;28;20042;-69
2022/09/03 07:38:10;;;;;;;4.17;2.10;;;;;;;-145.18;100.00;47133.13;4972399;28;20051;-68
2022/09/03 07:40:38;;;;;;;12.63;1.83;;;;;;;-145.18;100.00;47133.13;4972456;28;20062;-68
2022/09/03 07:43:04;;;;;;;6.03;2.13;;;;;;;-145.18;100.00;47125.31;4965169;28;20114;-69
2022/09/03 07:45:31;;;;;;;11.53;2.30;;;;;;;-145.18;100.00;47137.03;4971279;28;20795;-69
2022/09/03 07:47:57;;;;;;;14.00;2.53;;;;;;;-145.18;100.00;47127.28;4971950;28;20042;-69
2022/09/03 07:50:23;;;;;;;4.40;2.00;;;;;;;-145.18;100.00;47131.19;4972024;28;20069;-69
2022/09/03 07:52:48;;;;;;;6.73;2.40;;;;;;;-145.18;100.00;47125.31;4970630;28;20041;-69
2022/09/03 07:55:14;;;;;;;6.00;1.90;;;;;;;-145.18;100.00;47125.31;4971521;28;20471;-69
2022/09/03 07:57:40;;;;;;;11.67;2.10;;;;;;;-145.18;100.00;47121.41;4972481;28;20113;-69
2022/09/03 08:00:10;;;;;;;7.17;2.73;;;;;;;-145.18;100.00;47117.50;4971789;28;20031;-69
2022/09/03 08:02:35;;;;;;;6.83;2.10;;;;;;;-145.18;100.00;47117.50;4971766;28;20050;-69
2022/09/03 08:05:00;;;;;;;3.90;2.03;;;;;;;-145.18;100.00;47117.50;4971514;28;20451;-69
2022/09/03 08:07:28;;;;;;;5.93;1.97;;;;;;;-145.18;100.00;47097.97;4971323;28;20136;-69
2022/09/03 08:09:53;;;;;;;9.13;2.30;;;;;;;-145.18;100.00;47101.88;4972193;28;20034;-69
2022/09/03 08:12:19;;;;;;;10.10;2.43;;;;;;;-145.18;100.00;47103.81;4959891;28;20539;-69
2022/09/03 08:14:44;;;;;;;8.33;2.50;;;;;;;-145.18;100.00;47086.25;4952267;28;20062;-69
2022/09/03 08:17:11;;;;;;;5.97;1.90;;;;;;;-145.18;100.00;47097.97;4952373;28;20035;-69
2022/09/03 08:19:36;;;;;;;7.57;2.37;;;;;;;-145.18;100.00;47096.00;4952354;29;20110;-69
2022/09/03 08:22:02;;;;;;;5.20;2.07;;;;;;;-145.18;100.00;47096.00;4955894;28;20555;-69
2022/09/03 08:24:27;;;;;;;8.83;2.87;;;;;;;-145.18;100.00;47086.25;4971784;28;20431;-69
2022/09/03 08:26:53;;;;;;;8.37;2.30;;;;;;;-145.18;100.00;47097.97;4971760;28;20061;-69
2022/09/03 08:29:19;;;;;;;4.10;2.77;;;;;;;-145.18;100.00;47096.00;4971238;28;20046;-69
2022/09/03 08:31:45;;;;;;;8.83;2.70;;;;;;;-145.18;100.00;47090.16;4972097;28;20046;-69
2022/09/03 08:34:12;;;;;;;5.60;2.50;;;;;;;-145.18;100.00;47080.38;4971378;28;20047;-69
2022/09/03 08:36:40;;;;;;;6.97;2.63;;;;;;;-145.18;100.00;47068.66;4971855;28;20451;-69
2022/09/03 08:39:08;;;;;;;7.20;2.50;;;;;;;-145.18;100.00;47055.00;4970888;28;20046;-69
2022/09/03 08:41:52;;;;;;;8.57;2.53;;;;;;;-145.18;100.00;47043.28;4971360;28;20034;-69
2022/09/03 08:44:46;;;;;;;6.20;2.40;;;;;;;-145.18;100.00;47029.59;4971135;28;20027;-69
2022/09/03 08:47:25;;;;;;;12.77;2.23;;;;;;;-145.18;100.00;47039.34;4971068;28;20159;-69
2022/09/03 08:49:56;;;;;;;11.27;2.37;;;;;;;-145.18;100.00;47021.78;4971024;28;20031;-70
2022/09/03 08:52:37;;;;;;;5.10;2.20;;;;;;;-145.18;100.00;47019.81;4971637;28;20043;-69
2022/09/03 08:55:24;;;;;;;6.03;2.80;;;;;;;-145.18;100.00;47012.00;4971064;28;20452;-70
2022/09/03 08:58:13;;;;;;;10.43;2.47;;;;;;;-145.18;100.00;47019.81;4971564;28;20038;-70
2022/09/03 09:01:10;;;;;;;9.43;2.27;;;;;;;-145.18;100.00;47013.97;4978773;28;20034;-70
2022/09/03 09:03:51;;;;;;;5.80;2.27;;;;;;;-145.18;100.00;46998.34;4990377;28;20039;-69
2022/09/03 09:06:20;;;;;;;7.20;2.30;;;;;;;-145.18;100.00;46994.44;4990859;28;20034;-70
2022/09/03 09:08:45;;;;;;;9.30;2.90;;;;;;;-145.18;100.00;46996.38;4987294;28;20022;-70
2022/09/03 09:11:32;;;;;;;8.90;2.33;;;;;;;-145.18;100.00;46992.47;4971012;28;20027;-70
2022/09/03 09:14:07;;;;;;;6.40;2.37;;;;;;;-145.18;100.00;47000.28;4970425;28;20392;-70
2022/09/03 09:17:00;;;;;;;11.82;2.72;;;;;;;-145.18;100.00;47000.28;4990313;28;20036;-69
2022/09/03 09:19:47;;;;;;;11.83;2.40;;;;;;;-145.18;100.00;46988.56;4968101;28;20117;-70
2022/09/03 09:22:29;;;;;;;8.77;2.70;;;;;;;-145.18;100.00;47002.25;4974457;28;20037;-70
2022/09/03 09:24:59;;;;;;;10.37;2.17;;;;;;;-145.18;100.00;46976.84;4974396;28;20113;-70
2022/09/03 09:27:24;;;;;;;6.77;2.57;;;;;;;-145.18;100.00;46980.75;4974317;28;20034;-70
2022/09/03 09:29:51;;;;;;;12.33;2.40;;;;;;;-145.18;100.00;46984.66;4974116;28;20042;-70
2022/09/03 09:32:18;;;;;;;6.60;2.23;;;;;;;-145.18;100.00;46980.75;4974008;28;20027;-70
2022/09/03 09:34:44;;;;;;;7.77;2.17;;;;;;;-145.18;100.00;46978.81;4974032;28;20031;-70
2022/09/03 09:37:14;;;;;;;4.27;2.53;;;;;;;-145.18;99.21;46965.13;4974035;28;20037;-70
2022/09/03 09:39:52;;;;;;;10.30;3.07;;;;;;;-145.18;98.76;46961.22;4954118;28;20114;-70
2022/09/03 09:42:21;;;;;;;6.07;2.60;;;;;;;-145.18;94.80;46951.44;4952942;28;20031;-71
2022/09/03 09:44:46;;;;;;;10.33;2.63;;;;;;;-145.18;91.44;46967.09;4953819;28;20042;-70
2022/09/03 09:47:21;;;;;;;5.37;2.40;;;;;;;-145.18;91.74;46961.22;4957118;28;20062;-71
2022/09/03 09:50:03;;;;;;;10.10;2.35;;;;;;;-145.18;93.59;46959.25;4954497;28;20031;-71
2022/09/03 09:52:30;;;;;;;10.27;2.80;;;;;;;-145.18;92.11;46957.31;4955328;28;20039;-71
2022/09/03 09:55:27;;;;;;;13.17;2.70;;;;;;;-145.18;88.74;46955.34;4954707;28;20023;-71
2022/09/03 09:58:04;;;;;;;10.73;2.83;;;;;;;-145.18;86.32;46949.50;4930760;28;20050;-71
2022/09/03 10:00:33;;;;;;;6.37;2.53;;;;;;;-145.18;85.02;46933.88;4954294;28;20035;-71
2022/09/03 10:02:58;;;;;;;8.17;2.90;;;;;;;-145.18;85.21;46941.69;4954363;28;20056;-71
2022/09/03 10:05:26;;;;;;;6.37;1.97;;;;;;;-145.18;82.49;46943.63;4954569;28;20039;-71
2022/09/03 10:07:57;;;;;;;8.23;2.20;;;;;;;-145.18;82.56;46937.78;4955034;28;20031;-71
2022/09/03 10:10:24;;;;;;;8.43;2.28;;;;;;;-145.18;80.50;46937.78;4954033;28;20139;-71
2022/09/03 10:13:02;;;;;;;5.43;2.75;;;;;;;-145.18;80.84;46929.97;4954768;28;20046;-71
2022/09/03 10:15:40;;;;;;;7.20;2.58;;;;;;;-145.18;79.34;46918.25;4953460;29;20035;-70
2022/09/03 10:18:27;;;;;;;7.18;2.50;;;;;;;-145.18;78.81;46933.88;4954358;28;20027;-70
2022/09/03 10:21:14;;;;;;;8.50;2.03;;;;;;;-145.18;78.52;46924.09;4954546;29;20031;-71
2022/09/03 10:24:00;;;;;;;3.50;2.10;;;;;;;-145.18;75.76;46937.78;4954166;28;20043;-71
2022/09/03 10:26:29;;;;;;;6.22;2.17;;;;;;;-145.18;76.19;46918.25;4947180;29;20126;-71
2022/09/03 10:28:58;;;;;;;6.15;2.15;;;;;;;-145.18;77.59;46918.25;4954001;28;20504;-70
2022/09/03 10:31:47;;;;;;;4.40;2.30;;;;;;;-145.18;75.47;46918.25;4954454;29;20101;-71
2022/09/03 10:34:38;;;;;;;7.53;2.67;;;;;;;-145.18;75.25;46918.25;4953449;28;20019;-71
2022/09/03 10:37:24;;;;;;;5.25;2.28;;;;;;;-145.18;75.14;46922.16;4954071;29;20030;-70
2022/09/03 10:39:59;;;;;;;6.38;2.42;;;;;;;-145.18;74.58;46922.16;4953906;28;20089;-71
2022/09/03 10:42:39;;;;;;;9.63;3.13;;;;;;;-145.18;75.37;46906.53;4954089;28;20024;-70
2022/09/03 10:45:22;;;;;;;10.05;2.30;;;;;;;-145.18;75.46;46922.16;4953472;28;20023;-70
2022/09/03 10:47:59;;;;;;;15.65;2.72;;;;;;;-145.18;74.59;46910.44;4954112;28;20035;-70
2022/09/03 10:50:32;;;;;;;9.13;2.55;;;;;;;-145.18;70.40;46898.72;4953570;28;20592;-71
2022/09/03 10:53:06;;;;;;;6.82;2.17;;;;;;;-145.18;73.31;46935.81;4954069;28;20039;-71
2022/09/03 10:55:40;;;;;;;8.45;2.45;;;;;;;-145.18;74.03;46929.97;4953351;28;20488;-71
2022/09/03 10:58:42;;;;;;;5.28;2.42;;;;;;;-145.18;71.42;46920.19;4953499;28;20102;-71
2022/09/03 11:01:28;;;;;;;5.70;2.45;;;;;;;-145.18;71.44;46908.47;4953691;28;20050;-71
2022/09/03 11:04:06;;;;;;;5.15;2.30;;;;;;;-145.18;72.92;46904.56;4953231;28;20047;-71
2022/09/03 11:06:50;;;;;;;5.40;2.15;;;;;;;-145.18;72.39;46908.47;4953589;28;20028;-71
2022/09/03 11:09:23;;;;;;;18.75;3.00;;;;;;;-145.18;72.10;46906.53;4953133;28;20027;-71
2022/09/03 11:12:08;;;;;;;7.53;2.67;;;;;;;-145.18;68.44;46904.56;4953641;29;20114;-71
2022/09/03 11:14:45;;;;;;;5.55;2.45;;;;;;;-145.18;69.60;46896.75;4953009;28;20034;-71
2022/09/03 11:17:20;;;;;;;8.00;2.15;;;;;;;-145.18;67.15;46894.81;4953372;28;20066;-71
2022/09/03 11:20:18;;;;;;;8.02;2.33;;;;;;;-145.18;64.87;46902.63;4953141;28;20109;-71
2022/09/03 11:22:46;;;;;;;7.90;2.47;;;;;;;-145.18;63.80;46883.09;4953417;28;20114;-71
2022/09/03 11:25:14;;;;;;;13.38;2.80;;;;;;;-145.18;63.25;46875.28;4952831;28;20101;-71
2022/09/03 11:27:39;;;;;;;8.35;2.25;;;;;;;-145.18;62.83;46877.22;4953122;28;20059;-71
2022/09/03 11:30:10;;;;;;;3.30;2.10;;;;;;;-145.18;60.40;46879.19;4952562;28;20082;-71
2022/09/03 11:32:55;;;;;;;7.40;2.13;;;;;;;-145.18;60.59;46877.22;4953520;28;20027;-71
2022/09/03 11:35:30;;;;;;;9.02;2.60;;;;;;;-145.18;58.96;46865.50;4952533;28;20032;-71
2022/09/03 11:38:00;;;;;;;5.00;2.25;;;;;;;-145.18;59.42;46879.19;4952562;28;20027;-71
2022/09/03 11:41:01;;;;;;;5.93;2.50;;;;;;;-145.18;59.65;46871.38;4952746;29;20039;-71
2022/09/03 11:43:29;;;;;;;7.25;2.08;;;;;;;-145.18;60.69;46877.22;4950850;29;20066;-71
2022/09/03 11:46:12;;;;;;;9.23;2.45;;;;;;;-145.18;57.52;46867.44;4952927;28;20085;-71
2022/09/03 11:48:40;;;;;;;2.97;2.00;;;;;;;-145.18;55.98;46873.31;4952899;28;20032;-71
2022/09/03 11:51:17;;;;;;;10.50;2.13;;;;;;;-145.18;56.61;46873.31;4952370;28;20027;-71
2022/09/03 11:53:53;;;;;;;6.80;2.13;;;;;;;-145.18;56.03;46853.78;4952731;28;20031;-71
2022/09/03 11:56:19;;;;;;;4.90;2.33;;;;;;;-145.18;55.48;46847.91;4952841;28;20027;-71
2022/09/03 11:58:45;;;;;;;4.43;2.33;;;;;;;-145.18;52.92;46842.06;4952328;28;20396;-70
2022/09/03 12:01:14;;;;;;;9.00;2.30;;;;;;;-145.18;53.10;46851.81;4952328;28;20031;-71
2022/09/03 12:04:02;;;;;;;5.80;2.28;;;;;;;-145.18;52.92;46828.38;4972023;28;20043;-71
2022/09/03 12:07:05;;;;;;;5.28;2.40;;;;;;;-145.18;50.74;46830.34;4971978;28;20031;-70
2022/09/03 12:10:01;;;;;;;6.45;2.55;;;;;;;-145.18;50.56;46830.34;4969901;28;20404;-71
2022/09/03 12:13:10;;;;;;;7.25;2.33;;;;;;;-145.18;47.74;46812.75;4971957;28;20042;-71
2022/09/03 12:15:48;;;;;;;6.65;2.47;;;;;;;-145.18;45.21;46799.09;4941375;28;20042;-71
2022/09/03 12:18:23;;;;;;;8.77;2.47;;;;;;;-145.18;43.90;46777.59;4972031;28;20391;-71
2022/09/03 12:20:51;;;;;;;8.45;2.50;;;;;;;-145.18;42.68;46789.31;4971530;28;20081;-71
2022/09/03 12:23:31;;;;;;;4.70;2.00;;;;;;;-145.18;42.56;46781.50;4971511;28;20480;-71
2022/09/03 12:26:04;;;;;;;10.80;2.42;;;;;;;-145.18;42.45;46779.56;4971221;28;20416;-71
2022/09/03 12:28:35;;;;;;;11.75;2.20;;;;;;;-145.18;41.65;46779.56;4971919;28;20030;-71
2022/09/03 12:31:26;;;;;;;6.20;2.00;;;;;;;-145.18;41.43;46775.66;4971285;28;20495;-71
2022/09/03 12:33:52;;;;;;;7.80;2.65;;;;;;;-145.18;43.45;46769.78;4971666;28;20046;-71
2022/09/03 12:36:19;;;;;;;6.90;2.15;;;;;;;-145.18;39.51;46761.97;4971173;28;20030;-71
2022/09/03 12:38:46;;;;;;;9.48;2.08;;;;;;;-145.18;40.57;46765.88;4971685;28;20085;-71
2022/09/03 12:41:25;;;;;;;7.97;2.53;;;;;;;-145.18;37.97;46787.38;4971095;28;20134;-71
2022/09/03 12:43:56;;;;;;;4.78;2.30;;;;;;;-145.18;36.87;46787.38;4971559;28;20090;-71
2022/09/03 12:46:24;;;;;;;7.72;2.15;;;;;;;-145.18;36.91;46808.84;4970994;28;20050;-71
2022/09/03 12:49:06;;;;;;;4.57;1.75;;;;;;;-145.18;40.30;46816.66;4971862;28;20089;-71
2022/09/03 12:51:38;;;;;;;9.70;2.03;;;;;;;-145.18;40.76;46832.28;4975474;28;20031;-71
2022/09/03 12:54:08;;;;;;;7.03;2.75;;;;;;;-145.18;43.41;46824.47;4973821;28;20027;-71
2022/09/03 12:56:36;;;;;;;7.05;2.10;;;;;;;-145.18;43.72;46822.53;4975300;28;20085;-71
2022/09/03 12:59:16;;;;;;;7.75;1.98;;;;;;;-145.18;43.92;46828.38;4975018;28;20114;-71
2022/09/03 13:01:48;;;;;;;10.57;2.40;;;;;;;-145.18;40.50;46826.44;4975066;28;20464;-71
2022/09/03 13:04:21;;;;;;;5.50;2.85;;;;;;;-145.18;40.71;46826.44;4957398;28;20043;-71
2022/09/03 13:06:55;;;;;;;15.90;2.92;;;;;;;-145.18;38.73;46830.34;4975490;28;20058;-71
2022/09/03 13:09:23;;;;;;;11.77;2.60;;;;;;;-145.18;41.98;46818.63;4974315;28;20066;-71
2022/09/03 13:11:51;;;;;;;8.50;2.40;;;;;;;-145.18;41.23;46816.66;4974746;28;20102;-70
2022/09/03 13:14:18;;;;;;;5.90;2.20;;;;;;;-145.18;41.21;46814.72;4974727;28;20097;-71
2022/09/03 13:16:44;;;;;;;8.77;2.10;;;;;;;-145.18;40.68;46812.75;4975272;28;20070;-71
2022/09/03 13:19:33;;;;;;;5.97;2.97;;;;;;;-145.18;39.58;46804.94;4974209;28;20062;-70
2022/09/03 13:22:28;;;;;;;3.58;1.58;;;;;;;-145.18;40.06;46812.75;4974847;28;20054;-70
2022/09/03 13:25:10;;;;;;;6.30;2.38;;;;;;;-145.18;39.32;46795.19;4974490;28;20046;-70
2022/09/03 13:28:13;;;;;;;7.32;2.17;;;;;;;-145.18;37.72;46797.13;4974774;28;20671;-70
2022/09/03 13:31:02;;;;;;;5.15;1.90;;;;;;;-145.18;37.51;46789.31;4973967;28;20114;-70
2022/09/03 13:33:40;;;;;;;5.07;1.77;;;;;;;-145.18;37.27;46781.50;4974411;28;20039;-70